Time;durP1;ratioP1;P1;durP2;ratioP2;P2;SDS_P1;SDS_P2;PMS_P1;PMS_P2;Temp;Humidity;BMP_temperature;BMP_pressure;BME280_temperature;BME280_humidity;BME280_pressure;Samples;Min_cycle;Max_cycle;Signal;HPM_P1;HPM_P2
2022/11/14 00:00:23;;;;;;;2.83;2.20;;;22.00;90.00;;;;;;4998234;28;20542;-77
2022/11/14 00:02:49;;;;;;;1.93;1.73;;;22.00;90.00;;;;;;4991045;28;20448;-76
2022/11/14 00:05:16;;;;;;;2.77;1.80;;;21.90;90.00;;;;;;4989835;28;20997;-76
2022/11/14 00:07:43;;;;;;;2.50;2.00;;;22.00;90.00;;;;;;4992567;28;20471;-76
2022/11/14 00:10:12;;;;;;;3.30;2.00;;;21.90;90.00;;;;;;5013050;28;20474;-76
2022/11/14 00:12:38;;;;;;;1.87;1.73;;;21.80;90.10;;;;;;4988758;28;20530;-76
2022/11/14 00:15:06;;;;;;;2.17;1.90;;;21.80;90.20;;;;;;4991230;28;22001;-76
2022/11/14 00:17:33;;;;;;;2.43;2.23;;;21.70;90.30;;;;;;4993136;28;20470;-77
2022/11/14 00:20:00;;;;;;;2.13;1.93;;;21.60;90.40;;;;;;4995101;28;20950;-75
2022/11/14 00:22:26;;;;;;;2.97;1.83;;;21.60;90.40;;;;;;4991093;28;20464;-75
2022/11/14 00:24:53;;;;;;;2.22;2.03;;;21.60;90.60;;;;;;4997104;28;20850;-75
2022/11/14 00:27:21;;;;;;;1.60;1.50;;;21.60;90.70;;;;;;4993662;28;20203;-75
2022/11/14 00:29:48;;;;;;;2.47;2.23;;;21.50;90.80;;;;;;4991118;28;20953;-75
2022/11/14 00:32:14;;;;;;;2.47;2.10;;;21.50;90.90;;;;;;4987587;28;20468;-75
2022/11/14 00:34:41;;;;;;;2.10;1.90;;;21.60;90.80;;;;;;4985001;28;20452;-75
2022/11/14 00:37:08;;;;;;;2.90;2.70;;;21.60;90.70;;;;;;4993980;28;20470;-75
2022/11/14 00:39:35;;;;;;;2.03;1.83;;;21.60;90.70;;;;;;4991367;28;20819;-75
2022/11/14 00:42:01;;;;;;;1.93;1.77;;;21.60;90.70;;;;;;4991204;28;20463;-75
2022/11/14 00:44:29;;;;;;;2.37;2.17;;;21.60;90.80;;;;;;4998706;28;20495;-75
2022/11/14 00:46:56;;;;;;;2.10;1.87;;;21.50;90.80;;;;;;4992334;28;20464;-75
2022/11/14 00:49:23;;;;;;;2.87;2.20;;;21.50;90.90;;;;;;4990994;28;20475;-74
2022/11/14 00:51:49;;;;;;;2.47;2.27;;;21.40;91.00;;;;;;4994462;28;20464;-74
2022/11/14 00:54:16;;;;;;;2.05;1.85;;;21.40;91.10;;;;;;4991017;28;20460;-74
2022/11/14 00:56:43;;;;;;;2.90;2.50;;;21.30;91.10;;;;;;4989568;28;20198;-74
2022/11/14 00:59:10;;;;;;;2.20;2.00;;;21.30;91.20;;;;;;5002227;28;20803;-74
2022/11/14 01:01:38;;;;;;;3.17;2.97;;;21.30;91.20;;;;;;4995345;28;20460;-74
2022/11/14 01:04:05;;;;;;;2.13;2.03;;;21.30;91.20;;;;;;4989233;28;20479;-74
2022/11/14 01:06:31;;;;;;;1.97;1.73;;;21.30;91.20;;;;;;4998452;28;20201;-74
2022/11/14 01:08:58;;;;;;;2.47;2.27;;;21.30;91.50;;;;;;4995327;28;20466;-73
2022/11/14 01:11:25;;;;;;;2.38;2.05;;;21.30;91.40;;;;;;4994917;28;20460;-74
2022/11/14 01:13:51;;;;;;;2.20;2.00;;;21.30;91.30;;;;;;4989887;28;20197;-74
2022/11/14 01:16:18;;;;;;;2.20;2.00;;;21.30;91.30;;;;;;4991794;28;20998;-74
2022/11/14 01:18:47;;;;;;;4.10;2.70;;;21.30;91.30;;;;;;4987207;28;20887;-74
2022/11/14 01:21:14;;;;;;;2.13;2.03;;;21.30;91.40;;;;;;5000003;28;20447;-74
2022/11/14 01:23:41;;;;;;;2.50;2.30;;;21.20;91.50;;;;;;4986888;28;20460;-74
2022/11/14 01:26:10;;;;;;;2.40;2.20;;;21.20;91.50;;;;;;4985177;28;20786;-75
2022/11/14 01:28:37;;;;;;;2.17;1.97;;;21.10;91.60;;;;;;5001218;28;20467;-74
2022/11/14 01:31:12;;;;;;;2.43;2.23;;;21.10;91.70;;;;;;5001123;28;20460;-74
2022/11/14 01:33:39;;;;;;;2.20;2.00;;;21.00;91.80;;;;;;4984812;28;20974;-75
2022/11/14 01:36:09;;;;;;;2.42;2.22;;;21.00;92.20;;;;;;4999592;28;20189;-75
2022/11/14 01:38:36;;;;;;;2.27;2.07;;;21.00;91.80;;;;;;4999115;28;20211;-74
2022/11/14 01:41:03;;;;;;;2.00;1.77;;;21.00;91.80;;;;;;4997277;28;20459;-74
2022/11/14 01:43:32;;;;;;;2.13;1.92;;;21.00;91.70;;;;;;4990451;28;20204;-75
2022/11/14 01:46:01;;;;;;;2.53;2.33;;;21.00;91.70;;;;;;5000025;28;20598;-74
2022/11/14 01:48:36;;;;;;;3.40;2.53;;;21.10;91.80;;;;;;4987919;28;20668;-74
2022/11/14 01:51:19;;;;;;;2.47;2.30;;;21.00;92.10;;;;;;4994329;28;20450;-74
2022/11/14 01:53:48;;;;;;;2.38;2.17;;;21.00;92.10;;;;;;4987592;28;20193;-75
2022/11/14 01:56:18;;;;;;;2.50;2.30;;;21.00;92.00;;;;;;4985573;28;20509;-74
2022/11/14 01:58:49;;;;;;;2.20;1.90;;;21.00;92.00;;;;;;4994910;28;20462;-74
2022/11/14 02:01:16;;;;;;;2.28;2.08;;;21.00;92.10;;;;;;4994071;28;20939;-75
2022/11/14 02:03:46;;;;;;;2.60;2.40;;;20.90;92.20;;;;;;4989189;28;20201;-75
2022/11/14 02:06:19;;;;;;;2.20;1.92;;;20.90;92.30;;;;;;5004520;28;20224;-75
2022/11/14 02:08:46;;;;;;;2.58;2.38;;;20.80;92.40;;;;;;4989457;28;20228;-74
2022/11/14 02:11:13;;;;;;;2.05;1.85;;;20.80;92.40;;;;;;4998627;28;20202;-75
2022/11/14 02:13:40;;;;;;;2.92;2.60;;;20.70;92.50;;;;;;4999037;28;20572;-74
2022/11/14 02:16:07;;;;;;;1.80;1.70;;;20.80;92.50;;;;;;4989589;28;20720;-74
2022/11/14 02:18:33;;;;;;;2.67;2.38;;;20.70;92.40;;;;;;4984764;28;20212;-74
2022/11/14 02:21:01;;;;;;;2.33;2.13;;;20.70;92.40;;;;;;4987960;28;20205;-75
2022/11/14 02:23:30;;;;;;;2.30;2.15;;;20.80;92.40;;;;;;4997592;28;20200;-75
2022/11/14 02:25:59;;;;;;;2.75;1.80;;;20.70;92.70;;;;;;4971966;28;20217;-75
2022/11/14 02:28:26;;;;;;;2.45;2.13;;;20.70;92.80;;;;;;4985528;28;20292;-75
2022/11/14 02:30:53;;;;;;;2.22;2.03;;;20.80;92.70;;;;;;4987511;28;20201;-74
2022/11/14 02:33:19;;;;;;;2.70;2.50;;;20.80;92.70;;;;;;4985914;28;20205;-75
2022/11/14 02:35:46;;;;;;;2.83;2.28;;;20.70;92.60;;;;;;4986323;28;20456;-75
2022/11/14 02:38:14;;;;;;;2.25;2.05;;;20.70;92.70;;;;;;4997548;28;20204;-75
2022/11/14 02:40:41;;;;;;;2.10;2.00;;;20.70;92.80;;;;;;5014876;28;20236;-75
2022/11/14 02:43:08;;;;;;;2.03;1.83;;;20.70;92.90;;;;;;5000288;28;20659;-74
2022/11/14 02:45:35;;;;;;;2.22;2.03;;;20.60;93.00;;;;;;4988524;28;20228;-75
2022/11/14 02:48:01;;;;;;;3.58;2.15;;;20.50;93.00;;;;;;5001844;28;20205;-74
2022/11/14 02:50:28;;;;;;;1.85;1.73;;;20.50;93.00;;;;;;5002417;28;20205;-75
2022/11/14 02:52:55;;;;;;;2.60;2.35;;;20.60;93.10;;;;;;5004856;28;20219;-74
2022/11/14 02:55:23;;;;;;;2.38;2.15;;;20.50;93.00;;;;;;5014150;28;20202;-75
2022/11/14 02:57:50;;;;;;;2.40;2.20;;;20.60;93.30;;;;;;5001735;28;20197;-75
2022/11/14 03:00:18;;;;;;;2.28;2.08;;;20.60;93.30;;;;;;4991799;28;20576;-75
2022/11/14 03:02:44;;;;;;;2.20;1.90;;;20.60;93.20;;;;;;4998450;28;20201;-74
2022/11/14 03:05:11;;;;;;;2.58;2.35;;;20.60;93.10;;;;;;4995554;28;20471;-75
2022/11/14 03:07:38;;;;;;;2.40;2.20;;;20.60;93.20;;;;;;4994897;28;20575;-71
2022/11/14 03:10:06;;;;;;;2.65;2.42;;;20.60;93.20;;;;;;4993809;28;20193;-72
2022/11/14 03:12:35;;;;;;;2.42;2.22;;;20.50;93.20;;;;;;5003765;28;20272;-72
2022/11/14 03:15:01;;;;;;;2.25;2.05;;;20.50;93.30;;;;;;4991992;28;20197;-72
2022/11/14 03:17:31;;;;;;;2.30;2.10;;;20.40;93.40;;;;;;4999911;28;20201;-72
2022/11/14 03:19:57;;;;;;;2.28;2.08;;;20.40;93.50;;;;;;4995115;28;20200;-71
2022/11/14 03:22:24;;;;;;;2.85;2.65;;;20.40;93.50;;;;;;4995347;28;20204;-71
2022/11/14 03:24:51;;;;;;;2.55;2.35;;;20.40;93.50;;;;;;5005608;28;20602;-71
2022/11/14 03:27:18;;;;;;;2.60;2.40;;;20.40;94.00;;;;;;4994752;28;20280;-71
2022/11/14 03:29:46;;;;;;;2.22;2.03;;;20.40;93.70;;;;;;4993729;28;20592;-71
2022/11/14 03:32:13;;;;;;;2.50;2.30;;;20.50;93.60;;;;;;4989765;28;20211;-71
2022/11/14 03:34:40;;;;;;;2.53;2.33;;;20.50;93.60;;;;;;4994934;28;20671;-71
2022/11/14 03:37:06;;;;;;;2.17;2.03;;;20.50;93.60;;;;;;5008514;28;20652;-71
2022/11/14 03:39:33;;;;;;;2.67;2.33;;;20.40;93.60;;;;;;5007348;28;20204;-71
2022/11/14 03:42:00;;;;;;;2.10;1.90;;;20.40;93.70;;;;;;4987980;28;20644;-71
2022/11/14 03:44:26;;;;;;;2.65;2.45;;;20.30;93.70;;;;;;5005230;28;20672;-71
2022/11/14 03:46:54;;;;;;;2.15;2.05;;;20.30;93.80;;;;;;4989179;28;20221;-72
2022/11/14 03:49:21;;;;;;;2.33;2.00;;;20.30;93.90;;;;;;4986049;28;20207;-72
2022/11/14 03:51:49;;;;;;;2.67;2.47;;;20.30;93.90;;;;;;5000875;28;20204;-71
2022/11/14 03:54:16;;;;;;;2.25;2.05;;;20.30;93.90;;;;;;5005023;28;20212;-71
2022/11/14 03:56:43;;;;;;;2.40;2.20;;;20.30;93.90;;;;;;4999428;28;20209;-70
2022/11/14 03:59:09;;;;;;;2.70;2.25;;;20.30;94.10;;;;;;4992177;28;20207;-70
2022/11/14 04:01:36;;;;;;;1.98;1.88;;;20.30;94.20;;;;;;4995717;28;20212;-70
2022/11/14 04:04:04;;;;;;;2.40;2.20;;;20.40;94.10;;;;;;4990343;28;20201;-71
2022/11/14 04:06:31;;;;;;;2.00;1.80;;;20.40;94.00;;;;;;5001385;28;20229;-71
2022/11/14 04:08:58;;;;;;;2.40;2.20;;;20.40;93.90;;;;;;4991649;28;20220;-71
2022/11/14 04:11:25;;;;;;;2.20;2.00;;;20.30;93.90;;;;;;4997108;28;20232;-70
2022/11/14 04:13:52;;;;;;;2.60;2.40;;;20.30;94.00;;;;;;4990242;28;20766;-71
2022/11/14 04:16:18;;;;;;;2.25;2.05;;;20.20;94.10;;;;;;4998421;28;20240;-70
2022/11/14 04:18:45;;;;;;;2.17;1.98;;;20.20;94.20;;;;;;4989507;28;20198;-70
2022/11/14 04:21:13;;;;;;;2.50;2.05;;;20.20;94.30;;;;;;5007262;28;20564;-72
2022/11/14 04:23:40;;;;;;;2.42;2.22;;;20.20;94.30;;;;;;5003495;28;20200;-72
2022/11/14 04:26:07;;;;;;;2.55;2.35;;;20.20;94.20;;;;;;4998785;28;20225;-71
2022/11/14 04:28:33;;;;;;;2.63;2.28;;;20.20;94.20;;;;;;4988202;28;20224;-70
2022/11/14 04:31:00;;;;;;;2.42;2.22;;;20.20;94.20;;;;;;4997038;28;20204;-71
2022/11/14 04:33:27;;;;;;;2.30;2.10;;;20.20;94.50;;;;;;4990468;28;20193;-71
2022/11/14 04:35:54;;;;;;;2.30;2.10;;;20.30;94.40;;;;;;4985797;28;20196;-71
2022/11/14 04:38:22;;;;;;;2.72;2.53;;;20.30;94.20;;;;;;4993343;28;20228;-70
2022/11/14 04:40:50;;;;;;;2.50;2.30;;;20.30;94.20;;;;;;4990707;28;20208;-71
2022/11/14 04:43:17;;;;;;;3.45;3.00;;;20.20;94.20;;;;;;4999740;28;20718;-71
2022/11/14 04:45:44;;;;;;;2.33;2.13;;;20.20;94.30;;;;;;4992182;28;20589;-71
2022/11/14 04:48:11;;;;;;;3.00;2.65;;;20.20;94.40;;;;;;4985111;28;20213;-71
2022/11/14 04:50:37;;;;;;;2.25;2.05;;;20.20;94.50;;;;;;4993364;28;20221;-70
2022/11/14 04:53:05;;;;;;;2.60;2.40;;;20.10;94.50;;;;;;4990007;28;20613;-70
2022/11/14 04:55:33;;;;;;;2.33;2.13;;;20.10;94.60;;;;;;5002995;28;20269;-70
2022/11/14 04:57:59;;;;;;;2.10;1.95;;;20.10;94.50;;;;;;4989142;28;20682;-70
2022/11/14 05:00:26;;;;;;;2.70;2.50;;;20.10;94.50;;;;;;4996489;28;20209;-70
2022/11/14 05:02:53;;;;;;;2.60;2.40;;;20.10;94.60;;;;;;4983072;28;20228;-71
2022/11/14 05:05:20;;;;;;;2.42;2.20;;;20.10;94.70;;;;;;4985469;28;20220;-71
2022/11/14 05:07:46;;;;;;;1.85;1.75;;;20.20;94.70;;;;;;5007464;28;20204;-70
2022/11/14 05:10:13;;;;;;;2.40;2.20;;;20.30;94.60;;;;;;4985918;28;20205;-71
2022/11/14 05:12:41;;;;;;;2.30;2.10;;;20.50;94.20;;;;;;4986254;28;20578;-71
2022/11/14 05:15:09;;;;;;;2.30;2.10;;;20.50;94.00;;;;;;4990338;28;20310;-70
2022/11/14 05:17:36;;;;;;;2.35;2.15;;;20.60;93.90;;;;;;4988830;28;20205;-71
2022/11/14 05:20:04;;;;;;;2.37;2.17;;;20.80;93.70;;;;;;4989107;28;20614;-70
2022/11/14 05:22:30;;;;;;;2.17;2.00;;;20.80;93.40;;;;;;5002240;28;20452;-70
2022/11/14 05:24:57;;;;;;;1.90;1.80;;;20.80;93.40;;;;;;4997416;28;20510;-70
2022/11/14 05:27:24;;;;;;;2.20;2.00;;;21.00;93.20;;;;;;4986522;28;21008;-71
2022/11/14 05:29:52;;;;;;;1.73;1.63;;;21.00;93.00;;;;;;5005835;28;20443;-70
2022/11/14 05:32:18;;;;;;;2.33;2.13;;;21.00;92.90;;;;;;4993012;28;20534;-70
2022/11/14 05:34:45;;;;;;;1.97;1.87;;;21.10;92.90;;;;;;4989463;28;20460;-70
2022/11/14 05:37:12;;;;;;;2.00;1.80;;;21.10;92.70;;;;;;4998053;28;20459;-70
2022/11/14 05:39:39;;;;;;;2.70;2.50;;;21.20;92.60;;;;;;5004692;28;20981;-70
2022/11/14 05:42:06;;;;;;;3.00;2.40;;;21.20;92.40;;;;;;4987569;28;20468;-70
2022/11/14 05:44:32;;;;;;;2.30;2.10;;;21.20;92.30;;;;;;5000791;28;20505;-70
2022/11/14 05:47:00;;;;;;;2.33;2.13;;;21.20;92.30;;;;;;5004637;28;20501;-70
2022/11/14 05:49:27;;;;;;;2.13;2.03;;;21.20;92.30;;;;;;4985669;28;20460;-71
2022/11/14 05:51:54;;;;;;;2.10;2.00;;;21.30;92.30;;;;;;4987786;28;20464;-71
2022/11/14 05:54:21;;;;;;;2.37;2.17;;;21.30;92.20;;;;;;4989227;28;20463;-70
2022/11/14 05:56:47;;;;;;;2.30;2.10;;;21.30;92.10;;;;;;4989079;28;21086;-70
2022/11/14 05:59:14;;;;;;;2.27;1.90;;;21.40;92.10;;;;;;4991301;28;20448;-71
2022/11/14 06:01:41;;;;;;;2.27;2.17;;;21.40;92.00;;;;;;4992498;28;20982;-70
2022/11/14 06:04:09;;;;;;;2.10;1.90;;;21.40;91.90;;;;;;4996125;28;20464;-70
2022/11/14 06:06:35;;;;;;;2.33;2.13;;;21.40;91.80;;;;;;4990945;28;20484;-70
2022/11/14 06:09:02;;;;;;;2.70;2.50;;;21.50;91.80;;;;;;4989923;28;20460;-71
2022/11/14 06:11:29;;;;;;;1.90;1.80;;;21.40;91.70;;;;;;5005785;28;20962;-71
2022/11/14 06:13:55;;;;;;;1.80;1.70;;;21.50;91.70;;;;;;4987331;28;20459;-70
2022/11/14 06:16:22;;;;;;;2.20;2.00;;;21.40;91.60;;;;;;4998398;28;20495;-72
2022/11/14 06:18:49;;;;;;;2.17;2.00;;;21.40;91.60;;;;;;4990718;28;20468;-70
2022/11/14 06:21:19;;;;;;;2.07;1.87;;;21.50;91.60;;;;;;4993908;28;20472;-70
2022/11/14 06:23:46;;;;;;;2.23;2.03;;;21.50;91.50;;;;;;4994878;28;20970;-70
2022/11/14 06:26:20;;;;;;;2.57;2.10;;;21.50;91.50;;;;;;5012680;28;20478;-70
2022/11/14 06:28:48;;;;;;;2.30;2.10;;;21.50;91.40;;;;;;4995917;28;20525;-71
2022/11/14 06:31:15;;;;;;;2.23;1.93;;;21.50;91.40;;;;;;5000125;28;20513;-71
2022/11/14 06:33:42;;;;;;;2.63;2.43;;;21.50;91.30;;;;;;4999600;28;20460;-70
2022/11/14 06:36:09;;;;;;;2.20;2.00;;;21.50;91.20;;;;;;5000751;28;20444;-70
2022/11/14 06:38:39;;;;;;;1.97;1.87;;;21.60;91.20;;;;;;4987243;28;20986;-70
2022/11/14 06:41:07;;;;;;;1.80;1.70;;;21.60;91.10;;;;;;5008505;28;20452;-70
2022/11/14 06:43:34;;;;;;;2.17;1.97;;;21.60;91.10;;;;;;4985937;28;20464;-71
2022/11/14 06:46:01;;;;;;;2.33;1.73;;;21.60;91.00;;;;;;4990414;28;20480;-70
2022/11/14 06:48:29;;;;;;;2.60;2.40;;;21.70;91.00;;;;;;4996254;28;20485;-71
2022/11/14 06:50:57;;;;;;;2.53;2.33;;;21.60;90.90;;;;;;5001692;28;20467;-71
2022/11/14 06:53:25;;;;;;;2.10;2.00;;;21.60;90.90;;;;;;5003802;28;20463;-71
2022/11/14 06:55:57;;;;;;;2.40;2.20;;;21.60;90.90;;;;;;4986967;28;20823;-71
2022/11/14 06:58:27;;;;;;;2.43;2.27;;;21.50;90.90;;;;;;4999748;28;20975;-70
2022/11/14 07:00:53;;;;;;;2.20;2.00;;;21.50;91.00;;;;;;4991701;28;20983;-72
2022/11/14 07:03:20;;;;;;;1.90;1.70;;;21.40;91.00;;;;;;4992625;28;20460;-71
2022/11/14 07:05:48;;;;;;;1.93;1.83;;;21.40;91.00;;;;;;5010500;28;20432;-72
2022/11/14 07:08:14;;;;;;;2.13;1.93;;;21.40;91.10;;;;;;4990158;28;20898;-71
2022/11/14 07:10:41;;;;;;;1.90;1.80;;;21.40;91.30;;;;;;4993671;28;20440;-72
2022/11/14 07:13:10;;;;;;;2.57;2.37;;;21.40;91.30;;;;;;4987891;28;20476;-71
2022/11/14 07:15:37;;;;;;;2.50;2.30;;;21.40;91.20;;;;;;4992260;28;22166;-71
2022/11/14 07:18:04;;;;;;;1.90;1.70;;;21.60;91.10;;;;;;4998687;28;20460;-71
2022/11/14 07:20:30;;;;;;;2.23;2.03;;;21.60;90.90;;;;;;4996874;28;20463;-71
2022/11/14 07:22:57;;;;;;;2.23;2.03;;;21.70;90.80;;;;;;4996497;28;20456;-71
2022/11/14 07:25:24;;;;;;;2.10;1.90;;;21.80;90.60;;;;;;4993634;28;20451;-72
2022/11/14 07:27:50;;;;;;;2.50;2.30;;;21.90;90.50;;;;;;4990651;28;20479;-71
2022/11/14 07:30:19;;;;;;;1.87;1.77;;;22.00;90.30;;;;;;4992160;28;20466;-71
2022/11/14 07:32:46;;;;;;;2.17;1.97;;;22.00;90.20;;;;;;4997551;28;20464;-71
2022/11/14 07:35:12;;;;;;;2.20;2.00;;;22.00;90.10;;;;;;4995029;28;20456;-71
2022/11/14 07:37:39;;;;;;;2.23;2.03;;;22.00;90.10;;;;;;4994951;28;20463;-71
2022/11/14 07:40:07;;;;;;;1.60;1.50;;;22.00;90.10;;;;;;4996767;28;20463;-72
2022/11/14 07:42:34;;;;;;;2.40;2.20;;;22.00;90.10;;;;;;4985071;28;20465;-70
2022/11/14 07:45:00;;;;;;;2.03;1.83;;;22.00;90.10;;;;;;4998453;28;20967;-70
2022/11/14 07:47:28;;;;;;;1.77;1.67;;;21.90;90.00;;;;;;5004495;28;20883;-70
2022/11/14 07:49:55;;;;;;;1.50;1.40;;;22.00;90.10;;;;;;4994234;28;20992;-71
2022/11/14 07:52:22;;;;;;;2.20;2.00;;;22.00;90.00;;;;;;4996019;28;20464;-71
2022/11/14 07:54:49;;;;;;;2.13;1.97;;;21.90;90.00;;;;;;4993450;28;20443;-71
2022/11/14 07:57:15;;;;;;;1.90;1.70;;;21.90;90.00;;;;;;4990765;28;20455;-71
2022/11/14 07:59:42;;;;;;;2.03;1.93;;;21.90;90.10;;;;;;5000428;28;20456;-72
2022/11/14 08:02:12;;;;;;;2.97;2.10;;;21.90;90.10;;;;;;4995049;28;20489;-71
2022/11/14 08:04:41;;;;;;;2.07;1.90;;;21.80;90.10;;;;;;4984733;28;20531;-71
2022/11/14 08:07:07;;;;;;;2.40;2.20;;;21.80;90.20;;;;;;4995308;28;20951;-74
2022/11/14 08:09:34;;;;;;;2.47;2.17;;;21.80;90.20;;;;;;4999429;28;20962;-71
2022/11/14 08:12:01;;;;;;;2.13;1.93;;;21.70;90.30;;;;;;4995644;28;20871;-72
2022/11/14 08:14:28;;;;;;;2.00;1.80;;;21.70;90.30;;;;;;4991889;28;20984;-71
2022/11/14 08:16:54;;;;;;;2.10;2.00;;;21.80;90.30;;;;;;5005953;28;20483;-72
2022/11/14 08:19:21;;;;;;;2.80;2.60;;;21.80;90.20;;;;;;4982424;28;20827;-71
2022/11/14 08:21:49;;;;;;;2.63;2.43;;;21.90;90.10;;;;;;4998555;28;20467;-68
2022/11/14 08:24:16;;;;;;;1.80;1.70;;;21.90;90.00;;;;;;5002298;28;20830;-72
2022/11/14 08:26:43;;;;;;;2.47;2.27;;;22.00;89.80;;;;;;4994896;28;20874;-73
2022/11/14 08:29:09;;;;;;;2.60;1.87;;;22.00;89.50;;;;;;4990295;28;20471;-72
2022/11/14 08:31:36;;;;;;;2.10;1.90;;;22.10;89.40;;;;;;4996109;28;20953;-72
2022/11/14 08:34:03;;;;;;;2.27;2.10;;;22.10;89.20;;;;;;4995487;28;20911;-71
2022/11/14 08:36:29;;;;;;;2.07;1.70;;;22.10;89.10;;;;;;4992986;28;20444;-71
2022/11/14 08:38:57;;;;;;;2.80;2.60;;;22.20;88.90;;;;;;4990513;28;20830;-72
2022/11/14 08:41:24;;;;;;;2.03;1.93;;;22.20;88.80;;;;;;5003316;28;20444;-71
2022/11/14 08:43:51;;;;;;;2.40;2.20;;;22.20;88.60;;;;;;4999975;28;20859;-70
2022/11/14 08:46:17;;;;;;;2.20;2.00;;;22.20;88.30;;;;;;5000193;28;20471;-71
2022/11/14 08:48:44;;;;;;;2.33;2.00;;;22.30;88.20;;;;;;4985147;28;20460;-71
2022/11/14 08:51:11;;;;;;;1.87;1.77;;;22.30;88.00;;;;;;4999067;28;21076;-72
2022/11/14 08:53:37;;;;;;;2.30;2.13;;;22.30;87.60;;;;;;4988856;28;20464;-71
2022/11/14 08:56:06;;;;;;;2.17;2.03;;;22.40;87.60;;;;;;4988659;28;20455;-72
2022/11/14 08:58:33;;;;;;;2.23;2.03;;;22.40;87.60;;;;;;4996484;28;20474;-72
2022/11/14 09:01:01;;;;;;;2.30;2.10;;;22.40;87.50;;;;;;4991079;28;20451;-75
2022/11/14 09:03:28;;;;;;;2.17;2.07;;;22.40;87.20;;;;;;4984525;28;20457;-73
2022/11/14 09:05:55;;;;;;;3.07;2.53;;;22.50;87.20;;;;;;4987341;28;20976;-73
2022/11/14 09:08:22;;;;;;;4.40;2.60;;;22.50;87.30;;;;;;4992181;28;21178;-73
2022/11/14 09:10:49;;;;;;;2.80;2.50;;;22.50;87.20;;;;;;4992376;28;20444;-75
2022/11/14 09:13:17;;;;;;;10.40;3.50;;;22.50;87.30;;;;;;4989767;28;20464;-74
2022/11/14 09:15:44;;;;;;;3.73;3.43;;;22.50;82.50;;;;;;4991939;28;21006;-72
2022/11/14 09:18:11;;;;;;;2.93;2.63;;;22.50;82.70;;;;;;4988865;28;20456;-73
2022/11/14 09:20:38;;;;;;;3.17;2.87;;;;;;;;;;4989993;28;20464;-73
2022/11/14 09:23:06;;;;;;;2.70;2.50;;;22.60;83.70;;;;;;4992192;28;20452;-72
2022/11/14 09:25:32;;;;;;;2.70;2.50;;;22.60;84.40;;;;;;4989015;28;20958;-73
2022/11/14 09:28:04;;;;;;;3.97;2.80;;;22.60;84.60;;;;;;4979725;28;20480;-72
2022/11/14 09:30:32;;;;;;;3.10;2.80;;;22.60;85.10;;;;;;4988251;28;20974;-75
2022/11/14 09:33:00;;;;;;;3.40;3.10;;;22.60;85.80;;;;;;4987244;28;20978;-69
2022/11/14 09:35:27;;;;;;;4.70;3.60;;;22.70;84.00;;;;;;4988338;28;20490;-71
2022/11/14 09:37:59;;;;;;;3.57;3.27;;;22.60;83.70;;;;;;4989049;28;20463;-72
2022/11/14 09:40:26;;;;;;;3.83;2.60;;;22.60;84.00;;;;;;4991673;28;20951;-72
2022/11/14 09:43:07;;;;;;;3.27;2.97;;;22.60;84.20;;;;;;4986524;28;20982;-72
2022/11/14 09:45:42;;;;;;;2.80;2.60;;;22.60;84.20;;;;;;4988957;28;21052;-71
2022/11/14 09:48:13;;;;;;;4.20;3.00;;;22.60;84.30;;;;;;4987588;28;20491;-72
2022/11/14 09:50:45;;;;;;;2.70;2.50;;;22.60;84.20;;;;;;4997446;28;20458;-71
2022/11/14 09:53:17;;;;;;;4.17;3.03;;;22.60;84.20;;;;;;4988954;28;20456;-72
2022/11/14 09:55:44;;;;;;;6.40;3.13;;;22.60;84.30;;;;;;4995373;28;20471;-71
2022/11/14 09:58:15;;;;;;;4.33;2.80;;;22.60;84.20;;;;;;4989467;28;20987;-72
2022/11/14 10:00:51;;;;;;;2.93;2.63;;;22.60;84.10;;;;;;4991500;28;20823;-72
2022/11/14 10:03:26;;;;;;;2.70;2.47;;;22.60;84.00;;;;;;4989127;28;20461;-72
2022/11/14 10:06:03;;;;;;;3.70;2.93;;;22.70;84.20;;;;;;4992674;28;20452;-73
2022/11/14 10:08:44;;;;;;;3.27;2.97;;;22.70;84.20;;;;;;4986126;28;20488;-72
2022/11/14 10:11:16;;;;;;;4.47;2.80;;;22.70;84.20;;;;;;4990564;28;20466;-71
2022/11/14 10:13:58;;;;;;;3.07;2.87;;;22.70;84.10;;;;;;4989134;28;20936;-71
2022/11/14 10:16:37;;;;;;;2.50;2.30;;;22.70;84.10;;;;;;4990258;28;20550;-72
2022/11/14 10:19:16;;;;;;;2.80;2.60;;;22.70;84.00;;;;;;4980857;28;20875;-71
2022/11/14 10:21:54;;;;;;;2.83;2.63;;;22.70;83.90;;;;;;4990973;28;20819;-72
2022/11/14 10:24:47;;;;;;;3.00;2.80;;;22.70;83.90;;;;;;4986126;28;20460;-72
2022/11/14 10:27:18;;;;;;;2.63;2.43;;;22.70;84.00;;;;;;4985380;28;20479;-72
2022/11/14 10:30:05;;;;;;;3.03;2.80;;;22.70;83.90;;;;;;4997198;28;20463;-73
2022/11/14 10:32:56;;;;;;;3.13;2.63;;;22.70;84.10;;;;;;4995247;28;21017;-71
2022/11/14 10:35:28;;;;;;;2.97;2.77;;;22.70;83.90;;;;;;4988882;28;21008;-73
2022/11/14 10:38:02;;;;;;;3.90;2.63;;;22.70;83.90;;;;;;4993005;28;20452;-72
2022/11/14 10:40:36;;;;;;;3.40;3.10;;;22.60;83.50;;;;;;4986735;28;20467;-70
2022/11/14 10:43:14;;;;;;;3.03;2.73;;;22.60;83.50;;;;;;4996664;28;20837;-70
2022/11/14 10:45:46;;;;;;;3.27;3.07;;;22.70;83.90;;;;;;4989731;28;20455;-71
2022/11/14 10:48:19;;;;;;;3.00;2.70;;;22.70;83.80;;;;;;4992566;28;20488;-72
2022/11/14 10:50:52;;;;;;;2.57;2.10;;;22.70;83.70;;;;;;4992140;28;20471;-71
2022/11/14 10:53:26;;;;;;;4.00;2.67;;;22.70;83.70;;;;;;4988627;28;20456;-70
2022/11/14 10:55:54;;;;;;;3.00;2.80;;;22.80;83.70;;;;;;4996779;28;20464;-71
2022/11/14 10:58:21;;;;;;;2.47;2.20;;;22.70;83.40;;;;;;5001230;28;20532;-71
2022/11/14 11:00:48;;;;;;;2.80;2.60;;;22.80;83.50;;;;;;4999336;28;20470;-71
2022/11/14 11:03:16;;;;;;;2.40;2.20;;;22.80;83.20;;;;;;4991784;28;20461;-71
2022/11/14 11:05:49;;;;;;;3.10;2.63;;;22.80;83.10;;;;;;4995130;28;20808;-71
2022/11/14 11:13:54;;;;;;;2.13;2.03;;;22.70;82.70;;;;;;4998771;28;20953;-70
2022/11/14 11:16:23;;;;;;;2.63;2.43;;;22.70;82.90;;;;;;4990373;28;20487;-71
2022/11/14 11:18:51;;;;;;;2.57;2.37;;;22.70;82.70;;;;;;4983614;28;20460;-79
2022/11/14 11:21:20;;;;;;;2.40;2.20;;;22.70;83.10;;;;;;4994655;28;20950;-78
2022/11/14 11:23:51;;;;;;;2.80;2.60;;;22.70;83.80;;;;;;4997731;28;20455;-77
2022/11/14 11:26:21;;;;;;;2.37;2.17;;;22.70;84.20;;;;;;4990334;28;20452;-80
2022/11/14 11:29:03;;;;;;;4.00;2.33;;;22.70;84.50;;;;;;5001304;28;21017;-75
2022/11/14 11:31:50;;;;;;;2.33;2.10;;;22.70;84.80;;;;;;4992847;28;20974;-76
2022/11/14 11:34:22;;;;;;;2.60;2.40;;;22.70;85.10;;;;;;4986009;28;20464;-77
2022/11/14 11:36:53;;;;;;;2.40;2.20;;;22.70;85.30;;;;;;4982642;28;20823;-78
2022/11/14 11:39:28;;;;;;;3.03;2.40;;;22.70;85.40;;;;;;4997701;28;20984;-79
2022/11/14 11:41:58;;;;;;;2.73;2.53;;;22.80;85.50;;;;;;4985290;28;20551;-78
2022/11/14 11:44:34;;;;;;;2.37;2.17;;;22.80;85.40;;;;;;4987727;28;20487;-78
2022/11/14 11:47:04;;;;;;;2.40;2.20;;;22.80;85.70;;;;;;4987201;28;20546;-77
2022/11/14 11:49:40;;;;;;;2.03;1.90;;;22.80;85.60;;;;;;4986090;28;20464;-78
2022/11/14 11:52:19;;;;;;;2.00;1.90;;;22.80;86.10;;;;;;4985727;28;20463;-79
2022/11/14 11:54:59;;;;;;;2.60;2.40;;;22.80;86.00;;;;;;5008051;28;20963;-77
2022/11/14 11:57:31;;;;;;;2.83;2.63;;;22.80;86.10;;;;;;4987055;28;20508;-78
2022/11/14 12:00:05;;;;;;;2.60;2.40;;;22.80;86.20;;;;;;4990287;28;20456;-77
2022/11/14 12:02:32;;;;;;;2.50;2.30;;;22.80;86.30;;;;;;4990672;28;20820;-77
2022/11/14 12:05:00;;;;;;;2.30;2.10;;;22.80;86.10;;;;;;4997327;28;20488;-77
2022/11/14 12:07:38;;;;;;;3.83;2.77;;;22.80;86.20;;;;;;4990359;28;20982;-76
2022/11/14 12:10:14;;;;;;;9.13;2.70;;;22.80;86.10;;;;;;4986595;28;20484;-77
2022/11/14 12:13:08;;;;;;;2.53;2.33;;;22.80;86.20;;;;;;4987654;28;20460;-77
2022/11/14 12:15:42;;;;;;;3.17;2.37;;;22.80;85.70;;;;;;4990308;28;20491;-77
2022/11/14 12:18:42;;;;;;;3.40;2.33;;;22.80;85.90;;;;;;4984323;28;20457;-75
2022/11/14 12:21:24;;;;;;;2.47;2.27;;;22.80;86.00;;;;;;5000325;28;20598;-77
2022/11/14 12:24:30;;;;;;;2.17;2.07;;;22.80;86.40;;;;;;5006366;28;20439;-77
2022/11/14 12:27:08;;;;;;;2.60;2.40;;;22.80;86.10;;;;;;4993096;28;20462;-77
2022/11/14 12:30:03;;;;;;;3.13;2.70;;;22.80;86.00;;;;;;4997449;28;20463;-77
2022/11/14 12:32:32;;;;;;;2.40;2.20;;;22.80;86.00;;;;;;4995838;28;20464;-77
2022/11/14 12:35:03;;;;;;;3.70;2.50;;;22.80;86.40;;;;;;4989736;28;20878;-78
2022/11/14 12:37:35;;;;;;;2.10;2.00;;;22.80;86.40;;;;;;4998485;28;20449;-79
2022/11/14 12:40:05;;;;;;;3.60;2.60;;;22.80;86.40;;;;;;4989309;28;20966;-79
2022/11/14 12:42:32;;;;;;;5.83;2.80;;;22.80;86.40;;;;;;4987067;28;20495;-78
2022/11/14 12:44:59;;;;;;;2.40;2.30;;;22.80;86.60;;;;;;4991778;28;20462;-79
2022/11/14 12:47:27;;;;;;;2.60;2.40;;;22.80;86.50;;;;;;4996260;28;20950;-76
2022/11/14 12:50:02;;;;;;;3.20;2.90;;;22.80;86.10;;;;;;4986707;28;20475;-76
2022/11/14 12:52:47;;;;;;;2.93;2.67;;;22.80;86.20;;;;;;4989371;28;20467;-78
2022/11/14 12:55:51;;;;;;;2.83;1.87;;;22.80;86.20;;;;;;5001686;28;20809;-79
2022/11/14 12:58:30;;;;;;;2.20;2.00;;;22.80;86.00;;;;;;4991331;28;20455;-78
2022/11/14 13:01:16;;;;;;;3.10;2.80;;;22.80;85.70;;;;;;4981636;28;20490;-78
2022/11/14 13:03:58;;;;;;;2.07;1.97;;;22.80;85.90;;;;;;4982829;28;20474;-78